sensor_id;sensor_type;location;lat;lon;timestamp;P1;durP1;ratioP1;P2;durP2;ratioP2
15153;SDS011;7677;41.896;25.004;2023-03-01T00:01:23;14.20;;;6.33;;
15153;SDS011;7677;41.896;25.004;2023-03-01T00:03:51;13.77;;;8.10;;
15153;SDS011;7677;41.896;25.004;2023-03-01T00:06:21;14.77;;;6.53;;
15153;SDS011;7677;41.896;25.004;2023-03-01T00:08:50;13.30;;;7.57;;
15153;SDS011;7677;41.896;25.004;2023-03-01T00:11:20;8.87;;;5.53;;
15153;SDS011;7677;41.896;25.004;2023-03-01T00:13:49;11.83;;;6.07;;
15153;SDS011;7677;41.896;25.004;2023-03-01T00:16:20;9.27;;;5.50;;
15153;SDS011;7677;41.896;25.004;2023-03-01T00:18:49;8.03;;;5.60;;
15153;SDS011;7677;41.896;25.004;2023-03-01T00:21:19;7.70;;;4.97;;
15153;SDS011;7677;41.896;25.004;2023-03-01T00:23:47;11.97;;;5.73;;
15153;SDS011;7677;41.896;25.004;2023-03-01T00:26:17;8.50;;;5.33;;
15153;SDS011;7677;41.896;25.004;2023-03-01T00:28:47;10.17;;;6.70;;
15153;SDS011;7677;41.896;25.004;2023-03-01T00:31:16;15.43;;;5.00;;
15153;SDS011;7677;41.896;25.004;2023-03-01T00:33:46;10.43;;;5.97;;
15153;SDS011;7677;41.896;25.004;2023-03-01T00:36:15;11.17;;;5.80;;
15153;SDS011;7677;41.896;25.004;2023-03-01T00:38:43;10.63;;;5.93;;
15153;SDS011;7677;41.896;25.004;2023-03-01T00:41:13;12.20;;;7.13;;
15153;SDS011;7677;41.896;25.004;2023-03-01T00:43:46;10.87;;;6.30;;
15153;SDS011;7677;41.896;25.004;2023-03-01T00:46:14;11.27;;;6.43;;
15153;SDS011;7677;41.896;25.004;2023-03-01T00:48:49;11.00;;;6.77;;
15153;SDS011;7677;41.896;25.004;2023-03-01T00:51:19;9.37;;;6.33;;
15153;SDS011;7677;41.896;25.004;2023-03-01T00:53:50;10.30;;;5.67;;
15153;SDS011;7677;41.896;25.004;2023-03-01T00:56:19;9.10;;;5.70;;
15153;SDS011;7677;41.896;25.004;2023-03-01T00:58:48;7.53;;;4.50;;
15153;SDS011;7677;41.896;25.004;2023-03-01T01:01:16;6.53;;;4.07;;
15153;SDS011;7677;41.896;25.004;2023-03-01T01:03:45;7.03;;;5.13;;
15153;SDS011;7677;41.896;25.004;2023-03-01T01:06:13;6.53;;;3.93;;
15153;SDS011;7677;41.896;25.004;2023-03-01T01:08:45;5.60;;;3.80;;
15153;SDS011;7677;41.896;25.004;2023-03-01T01:11:14;6.47;;;3.57;;
15153;SDS011;7677;41.896;25.004;2023-03-01T01:13:45;4.37;;;2.73;;
15153;SDS011;7677;41.896;25.004;2023-03-01T01:16:13;3.47;;;2.70;;
15153;SDS011;7677;41.896;25.004;2023-03-01T01:18:40;4.50;;;3.07;;
15153;SDS011;7677;41.896;25.004;2023-03-01T01:21:08;4.43;;;3.20;;
15153;SDS011;7677;41.896;25.004;2023-03-01T01:23:36;4.27;;;2.50;;
15153;SDS011;7677;41.896;25.004;2023-03-01T01:26:04;3.83;;;2.73;;
15153;SDS011;7677;41.896;25.004;2023-03-01T01:28:35;3.93;;;2.13;;
15153;SDS011;7677;41.896;25.004;2023-03-01T01:31:04;3.43;;;2.20;;
15153;SDS011;7677;41.896;25.004;2023-03-01T01:33:32;3.43;;;2.50;;
15153;SDS011;7677;41.896;25.004;2023-03-01T01:35:59;2.20;;;2.00;;
15153;SDS011;7677;41.896;25.004;2023-03-01T01:38:26;2.90;;;2.43;;
15153;SDS011;7677;41.896;25.004;2023-03-01T01:40:54;2.77;;;2.50;;
15153;SDS011;7677;41.896;25.004;2023-03-01T01:43:22;3.93;;;2.37;;
15153;SDS011;7677;41.896;25.004;2023-03-01T01:45:55;3.80;;;2.80;;
15153;SDS011;7677;41.896;25.004;2023-03-01T01:48:27;3.20;;;2.50;;
15153;SDS011;7677;41.896;25.004;2023-03-01T01:51:10;5.63;;;3.10;;
15153;SDS011;7677;41.896;25.004;2023-03-01T01:53:41;6.00;;;3.73;;
15153;SDS011;7677;41.896;25.004;2023-03-01T01:56:09;6.00;;;3.43;;
15153;SDS011;7677;41.896;25.004;2023-03-01T01:58:37;5.03;;;3.70;;
15153;SDS011;7677;41.896;25.004;2023-03-01T02:01:05;4.93;;;4.43;;
15153;SDS011;7677;41.896;25.004;2023-03-01T02:03:35;13.17;;;7.10;;
15153;SDS011;7677;41.896;25.004;2023-03-01T02:06:10;8.70;;;5.30;;
15153;SDS011;7677;41.896;25.004;2023-03-01T02:08:41;7.43;;;4.17;;
15153;SDS011;7677;41.896;25.004;2023-03-01T02:11:09;3.63;;;2.90;;
15153;SDS011;7677;41.896;25.004;2023-03-01T02:13:39;2.60;;;2.10;;
15153;SDS011;7677;41.896;25.004;2023-03-01T02:16:08;5.57;;;3.70;;
15153;SDS011;7677;41.896;25.004;2023-03-01T02:18:41;4.63;;;2.97;;
15153;SDS011;7677;41.896;25.004;2023-03-01T02:21:12;2.90;;;2.60;;
15153;SDS011;7677;41.896;25.004;2023-03-01T02:23:48;3.73;;;2.77;;
15153;SDS011;7677;41.896;25.004;2023-03-01T02:26:19;7.03;;;3.40;;
15153;SDS011;7677;41.896;25.004;2023-03-01T02:28:49;4.53;;;2.80;;
15153;SDS011;7677;41.896;25.004;2023-03-01T02:31:19;3.90;;;2.40;;
15153;SDS011;7677;41.896;25.004;2023-03-01T02:34:06;3.03;;;2.53;;
15153;SDS011;7677;41.896;25.004;2023-03-01T02:36:36;3.23;;;2.47;;
15153;SDS011;7677;41.896;25.004;2023-03-01T02:39:06;3.20;;;2.60;;
15153;SDS011;7677;41.896;25.004;2023-03-01T02:41:39;2.33;;;2.13;;
15153;SDS011;7677;41.896;25.004;2023-03-01T02:44:13;6.37;;;3.67;;
15153;SDS011;7677;41.896;25.004;2023-03-01T02:46:44;2.53;;;2.30;;
15153;SDS011;7677;41.896;25.004;2023-03-01T02:49:18;5.10;;;2.60;;
15153;SDS011;7677;41.896;25.004;2023-03-01T02:51:50;2.77;;;2.57;;
15153;SDS011;7677;41.896;25.004;2023-03-01T02:54:27;2.30;;;2.10;;
15153;SDS011;7677;41.896;25.004;2023-03-01T02:56:58;3.27;;;2.10;;
15153;SDS011;7677;41.896;25.004;2023-03-01T02:59:29;3.30;;;2.30;;
15153;SDS011;7677;41.896;25.004;2023-03-01T03:02:00;3.00;;;2.03;;
15153;SDS011;7677;41.896;25.004;2023-03-01T03:04:27;3.70;;;2.67;;
15153;SDS011;7677;41.896;25.004;2023-03-01T03:06:54;3.87;;;2.70;;
15153;SDS011;7677;41.896;25.004;2023-03-01T03:09:22;5.07;;;2.77;;
15153;SDS011;7677;41.896;25.004;2023-03-01T03:11:49;4.97;;;3.17;;
15153;SDS011;7677;41.896;25.004;2023-03-01T03:14:16;4.47;;;2.93;;
15153;SDS011;7677;41.896;25.004;2023-03-01T03:16:46;6.67;;;3.57;;
15153;SDS011;7677;41.896;25.004;2023-03-01T03:19:14;5.10;;;2.77;;
15153;SDS011;7677;41.896;25.004;2023-03-01T03:21:44;4.67;;;3.27;;
15153;SDS011;7677;41.896;25.004;2023-03-01T03:24:12;3.60;;;2.40;;
15153;SDS011;7677;41.896;25.004;2023-03-01T03:26:41;3.87;;;2.80;;
15153;SDS011;7677;41.896;25.004;2023-03-01T03:29:08;4.60;;;2.53;;
15153;SDS011;7677;41.896;25.004;2023-03-01T03:31:40;3.83;;;2.73;;
15153;SDS011;7677;41.896;25.004;2023-03-01T03:34:23;3.43;;;2.60;;
15153;SDS011;7677;41.896;25.004;2023-03-01T03:36:52;4.80;;;2.90;;
15153;SDS011;7677;41.896;25.004;2023-03-01T03:39:23;3.90;;;3.13;;
15153;SDS011;7677;41.896;25.004;2023-03-01T03:41:50;7.93;;;4.70;;
15153;SDS011;7677;41.896;25.004;2023-03-01T03:44:22;17.10;;;6.57;;
15153;SDS011;7677;41.896;25.004;2023-03-01T03:46:49;29.10;;;10.47;;
15153;SDS011;7677;41.896;25.004;2023-03-01T03:49:16;30.87;;;11.37;;
15153;SDS011;7677;41.896;25.004;2023-03-01T03:51:47;7.80;;;4.33;;
15153;SDS011;7677;41.896;25.004;2023-03-01T03:54:14;7.73;;;3.90;;
15153;SDS011;7677;41.896;25.004;2023-03-01T03:56:43;3.50;;;2.67;;
15153;SDS011;7677;41.896;25.004;2023-03-01T03:59:10;2.93;;;2.63;;
15153;SDS011;7677;41.896;25.004;2023-03-01T04:01:37;4.40;;;2.93;;
15153;SDS011;7677;41.896;25.004;2023-03-01T04:04:16;3.70;;;3.00;;
15153;SDS011;7677;41.896;25.004;2023-03-01T04:06:44;4.10;;;2.73;;
15153;SDS011;7677;41.896;25.004;2023-03-01T04:09:12;4.80;;;2.93;;
15153;SDS011;7677;41.896;25.004;2023-03-01T04:11:39;3.93;;;2.90;;
15153;SDS011;7677;41.896;25.004;2023-03-01T04:14:07;5.13;;;3.07;;
15153;SDS011;7677;41.896;25.004;2023-03-01T04:16:34;4.70;;;3.73;;
15153;SDS011;7677;41.896;25.004;2023-03-01T04:19:01;3.80;;;2.67;;
15153;SDS011;7677;41.896;25.004;2023-03-01T04:21:28;3.97;;;2.57;;
15153;SDS011;7677;41.896;25.004;2023-03-01T04:23:55;3.93;;;3.20;;
15153;SDS011;7677;41.896;25.004;2023-03-01T04:26:24;5.37;;;3.50;;
15153;SDS011;7677;41.896;25.004;2023-03-01T04:28:52;5.77;;;3.47;;
15153;SDS011;7677;41.896;25.004;2023-03-01T04:31:20;6.30;;;3.37;;
15153;SDS011;7677;41.896;25.004;2023-03-01T04:33:48;5.10;;;3.03;;
15153;SDS011;7677;41.896;25.004;2023-03-01T04:36:18;2.93;;;2.33;;
15153;SDS011;7677;41.896;25.004;2023-03-01T04:38:46;4.03;;;2.77;;
15153;SDS011;7677;41.896;25.004;2023-03-01T04:41:14;6.37;;;2.60;;
15153;SDS011;7677;41.896;25.004;2023-03-01T04:43:43;5.13;;;2.47;;
15153;SDS011;7677;41.896;25.004;2023-03-01T04:46:11;3.33;;;2.70;;
15153;SDS011;7677;41.896;25.004;2023-03-01T04:48:39;3.67;;;2.63;;
15153;SDS011;7677;41.896;25.004;2023-03-01T04:51:08;5.20;;;2.57;;
15153;SDS011;7677;41.896;25.004;2023-03-01T04:53:38;3.10;;;2.50;;
15153;SDS011;7677;41.896;25.004;2023-03-01T04:56:06;3.27;;;2.83;;
15153;SDS011;7677;41.896;25.004;2023-03-01T04:58:33;2.47;;;2.23;;
15153;SDS011;7677;41.896;25.004;2023-03-01T05:01:07;3.53;;;2.03;;
15153;SDS011;7677;41.896;25.004;2023-03-01T05:03:40;3.17;;;2.17;;
15153;SDS011;7677;41.896;25.004;2023-03-01T05:06:09;4.03;;;2.70;;
15153;SDS011;7677;41.896;25.004;2023-03-01T05:08:36;3.67;;;2.37;;
15153;SDS011;7677;41.896;25.004;2023-03-01T05:11:04;2.37;;;1.77;;
15153;SDS011;7677;41.896;25.004;2023-03-01T05:13:34;2.90;;;2.00;;
15153;SDS011;7677;41.896;25.004;2023-03-01T05:16:03;4.73;;;3.80;;
15153;SDS011;7677;41.896;25.004;2023-03-01T05:18:32;6.40;;;3.50;;
15153;SDS011;7677;41.896;25.004;2023-03-01T05:21:02;8.70;;;4.77;;
15153;SDS011;7677;41.896;25.004;2023-03-01T05:23:30;10.07;;;5.97;;
15153;SDS011;7677;41.896;25.004;2023-03-01T05:25:57;24.23;;;9.87;;
15153;SDS011;7677;41.896;25.004;2023-03-01T05:28:25;20.83;;;8.73;;
15153;SDS011;7677;41.896;25.004;2023-03-01T05:30:54;8.57;;;4.83;;
15153;SDS011;7677;41.896;25.004;2023-03-01T05:33:23;11.40;;;5.70;;
15153;SDS011;7677;41.896;25.004;2023-03-01T05:35:51;6.93;;;4.30;;
15153;SDS011;7677;41.896;25.004;2023-03-01T05:38:19;7.27;;;4.40;;
15153;SDS011;7677;41.896;25.004;2023-03-01T05:40:48;5.67;;;3.77;;
15153;SDS011;7677;41.896;25.004;2023-03-01T05:43:16;6.47;;;3.53;;
15153;SDS011;7677;41.896;25.004;2023-03-01T05:45:43;6.07;;;3.23;;
15153;SDS011;7677;41.896;25.004;2023-03-01T05:48:11;3.50;;;2.70;;
15153;SDS011;7677;41.896;25.004;2023-03-01T05:50:40;4.20;;;2.67;;
15153;SDS011;7677;41.896;25.004;2023-03-01T05:53:09;5.03;;;3.40;;
15153;SDS011;7677;41.896;25.004;2023-03-01T05:55:37;4.23;;;2.77;;
15153;SDS011;7677;41.896;25.004;2023-03-01T05:58:05;5.23;;;2.87;;
15153;SDS011;7677;41.896;25.004;2023-03-01T06:00:34;4.40;;;2.87;;
15153;SDS011;7677;41.896;25.004;2023-03-01T06:03:01;5.00;;;3.40;;
15153;SDS011;7677;41.896;25.004;2023-03-01T06:05:36;9.93;;;5.27;;
15153;SDS011;7677;41.896;25.004;2023-03-01T06:08:05;9.87;;;5.33;;
15153;SDS011;7677;41.896;25.004;2023-03-01T06:10:33;9.40;;;4.40;;
15153;SDS011;7677;41.896;25.004;2023-03-01T06:13:00;5.13;;;3.37;;
15153;SDS011;7677;41.896;25.004;2023-03-01T06:15:27;4.90;;;3.97;;
15153;SDS011;7677;41.896;25.004;2023-03-01T06:17:55;6.73;;;3.33;;
15153;SDS011;7677;41.896;25.004;2023-03-01T06:20:23;5.70;;;3.87;;
15153;SDS011;7677;41.896;25.004;2023-03-01T06:22:51;5.50;;;3.83;;
15153;SDS011;7677;41.896;25.004;2023-03-01T06:25:23;5.57;;;3.10;;
15153;SDS011;7677;41.896;25.004;2023-03-01T06:27:51;3.23;;;2.80;;
15153;SDS011;7677;41.896;25.004;2023-03-01T06:30:19;3.90;;;3.53;;
15153;SDS011;7677;41.896;25.004;2023-03-01T06:32:47;5.90;;;3.60;;
15153;SDS011;7677;41.896;25.004;2023-03-01T06:35:15;7.00;;;4.13;;
15153;SDS011;7677;41.896;25.004;2023-03-01T06:37:43;9.80;;;5.10;;
15153;SDS011;7677;41.896;25.004;2023-03-01T06:40:11;16.50;;;10.23;;
15153;SDS011;7677;41.896;25.004;2023-03-01T06:42:42;22.40;;;11.47;;
15153;SDS011;7677;41.896;25.004;2023-03-01T06:45:10;18.50;;;11.30;;
15153;SDS011;7677;41.896;25.004;2023-03-01T06:47:38;15.93;;;10.10;;
15153;SDS011;7677;41.896;25.004;2023-03-01T06:50:05;14.03;;;8.03;;
15153;SDS011;7677;41.896;25.004;2023-03-01T06:52:33;8.00;;;4.73;;
15153;SDS011;7677;41.896;25.004;2023-03-01T06:55:00;7.50;;;4.30;;
15153;SDS011;7677;41.896;25.004;2023-03-01T06:57:27;7.03;;;4.77;;
15153;SDS011;7677;41.896;25.004;2023-03-01T06:59:56;6.80;;;3.63;;
15153;SDS011;7677;41.896;25.004;2023-03-01T07:02:23;5.97;;;4.27;;
15153;SDS011;7677;41.896;25.004;2023-03-01T07:04:51;5.83;;;4.20;;
15153;SDS011;7677;41.896;25.004;2023-03-01T07:07:19;3.97;;;3.50;;
15153;SDS011;7677;41.896;25.004;2023-03-01T07:12:37;5.53;;;3.87;;
15153;SDS011;7677;41.896;25.004;2023-03-01T07:15:08;5.67;;;4.00;;
15153;SDS011;7677;41.896;25.004;2023-03-01T07:17:36;4.80;;;3.17;;
15153;SDS011;7677;41.896;25.004;2023-03-01T07:20:04;7.23;;;3.27;;
15153;SDS011;7677;41.896;25.004;2023-03-01T07:22:31;3.37;;;2.77;;
15153;SDS011;7677;41.896;25.004;2023-03-01T07:24:59;3.80;;;3.27;;
15153;SDS011;7677;41.896;25.004;2023-03-01T07:27:26;6.27;;;3.57;;
15153;SDS011;7677;41.896;25.004;2023-03-01T07:29:53;3.97;;;2.97;;
15153;SDS011;7677;41.896;25.004;2023-03-01T07:32:21;5.43;;;3.80;;
15153;SDS011;7677;41.896;25.004;2023-03-01T07:34:50;3.43;;;3.00;;
15153;SDS011;7677;41.896;25.004;2023-03-01T07:37:17;4.23;;;2.53;;
15153;SDS011;7677;41.896;25.004;2023-03-01T07:39:44;3.87;;;2.87;;
15153;SDS011;7677;41.896;25.004;2023-03-01T07:42:12;6.83;;;4.10;;
15153;SDS011;7677;41.896;25.004;2023-03-01T07:44:39;6.63;;;4.40;;
15153;SDS011;7677;41.896;25.004;2023-03-01T07:47:06;4.23;;;3.73;;
15153;SDS011;7677;41.896;25.004;2023-03-01T07:49:35;5.07;;;4.00;;
15153;SDS011;7677;41.896;25.004;2023-03-01T07:52:02;5.37;;;3.20;;
15153;SDS011;7677;41.896;25.004;2023-03-01T07:54:30;5.67;;;3.27;;
15153;SDS011;7677;41.896;25.004;2023-03-01T07:56:57;3.60;;;3.10;;
15153;SDS011;7677;41.896;25.004;2023-03-01T07:59:24;5.43;;;4.43;;
15153;SDS011;7677;41.896;25.004;2023-03-01T08:01:54;4.13;;;3.27;;
15153;SDS011;7677;41.896;25.004;2023-03-01T08:04:21;3.27;;;2.70;;
15153;SDS011;7677;41.896;25.004;2023-03-01T08:06:51;4.43;;;3.60;;
15153;SDS011;7677;41.896;25.004;2023-03-01T08:09:18;4.17;;;2.53;;
15153;SDS011;7677;41.896;25.004;2023-03-01T08:11:45;4.63;;;3.43;;
15153;SDS011;7677;41.896;25.004;2023-03-01T08:14:13;5.90;;;3.60;;
15153;SDS011;7677;41.896;25.004;2023-03-01T08:16:40;4.87;;;3.53;;
15153;SDS011;7677;41.896;25.004;2023-03-01T08:19:08;5.33;;;3.23;;
15153;SDS011;7677;41.896;25.004;2023-03-01T08:21:36;2.60;;;2.40;;
15153;SDS011;7677;41.896;25.004;2023-03-01T08:24:06;3.40;;;2.30;;
15153;SDS011;7677;41.896;25.004;2023-03-01T08:26:35;3.67;;;3.10;;
15153;SDS011;7677;41.896;25.004;2023-03-01T08:29:03;5.70;;;3.77;;
15153;SDS011;7677;41.896;25.004;2023-03-01T08:31:34;3.90;;;3.27;;
15153;SDS011;7677;41.896;25.004;2023-03-01T08:34:03;4.20;;;2.67;;
15153;SDS011;7677;41.896;25.004;2023-03-01T08:36:32;2.57;;;2.37;;
15153;SDS011;7677;41.896;25.004;2023-03-01T08:39:11;2.57;;;2.27;;
15153;SDS011;7677;41.896;25.004;2023-03-01T08:41:40;2.57;;;2.23;;
15153;SDS011;7677;41.896;25.004;2023-03-01T08:44:09;2.93;;;2.50;;
15153;SDS011;7677;41.896;25.004;2023-03-01T08:46:37;2.40;;;2.17;;
15153;SDS011;7677;41.896;25.004;2023-03-01T08:49:06;3.30;;;2.20;;
15153;SDS011;7677;41.896;25.004;2023-03-01T08:51:34;4.30;;;2.80;;
15153;SDS011;7677;41.896;25.004;2023-03-01T08:54:03;2.87;;;2.67;;
15153;SDS011;7677;41.896;25.004;2023-03-01T08:56:32;3.63;;;2.60;;
15153;SDS011;7677;41.896;25.004;2023-03-01T08:59:17;5.87;;;3.87;;
15153;SDS011;7677;41.896;25.004;2023-03-01T09:01:45;6.73;;;5.27;;
15153;SDS011;7677;41.896;25.004;2023-03-01T09:04:12;6.00;;;4.37;;
15153;SDS011;7677;41.896;25.004;2023-03-01T09:06:41;6.43;;;3.20;;
15153;SDS011;7677;41.896;25.004;2023-03-01T09:09:10;4.27;;;2.70;;
15153;SDS011;7677;41.896;25.004;2023-03-01T09:11:42;3.40;;;2.87;;
15153;SDS011;7677;41.896;25.004;2023-03-01T09:14:11;3.93;;;2.87;;
15153;SDS011;7677;41.896;25.004;2023-03-01T09:16:38;4.20;;;3.43;;
15153;SDS011;7677;41.896;25.004;2023-03-01T09:19:05;6.03;;;4.80;;
15153;SDS011;7677;41.896;25.004;2023-03-01T09:21:33;7.03;;;5.20;;
15153;SDS011;7677;41.896;25.004;2023-03-01T09:24:00;12.53;;;9.50;;
15153;SDS011;7677;41.896;25.004;2023-03-01T09:26:27;7.97;;;6.00;;
15153;SDS011;7677;41.896;25.004;2023-03-01T09:28:56;4.57;;;4.07;;
15153;SDS011;7677;41.896;25.004;2023-03-01T09:31:24;3.87;;;2.70;;
15153;SDS011;7677;41.896;25.004;2023-03-01T09:33:52;3.60;;;2.67;;
15153;SDS011;7677;41.896;25.004;2023-03-01T09:36:30;4.87;;;3.43;;
15153;SDS011;7677;41.896;25.004;2023-03-01T09:39:04;5.90;;;5.27;;
15153;SDS011;7677;41.896;25.004;2023-03-01T09:41:42;5.73;;;4.30;;
15153;SDS011;7677;41.896;25.004;2023-03-01T09:44:16;4.07;;;3.37;;
15153;SDS011;7677;41.896;25.004;2023-03-01T09:46:48;6.53;;;3.27;;
15153;SDS011;7677;41.896;25.004;2023-03-01T09:49:17;4.77;;;2.33;;
15153;SDS011;7677;41.896;25.004;2023-03-01T09:51:47;2.97;;;2.63;;
15153;SDS011;7677;41.896;25.004;2023-03-01T09:54:21;3.87;;;2.97;;
15153;SDS011;7677;41.896;25.004;2023-03-01T09:56:53;4.10;;;2.60;;
15153;SDS011;7677;41.896;25.004;2023-03-01T09:59:29;3.27;;;2.97;;
15153;SDS011;7677;41.896;25.004;2023-03-01T10:01:59;3.27;;;2.97;;
15153;SDS011;7677;41.896;25.004;2023-03-01T10:04:38;2.63;;;2.43;;
15153;SDS011;7677;41.896;25.004;2023-03-01T10:07:14;6.80;;;3.97;;
15153;SDS011;7677;41.896;25.004;2023-03-01T10:10:00;12.77;;;5.07;;
15153;SDS011;7677;41.896;25.004;2023-03-01T10:12:33;16.67;;;6.70;;
15153;SDS011;7677;41.896;25.004;2023-03-01T10:15:06;19.43;;;9.10;;
15153;SDS011;7677;41.896;25.004;2023-03-01T10:17:38;9.70;;;4.87;;
15153;SDS011;7677;41.896;25.004;2023-03-01T10:20:20;6.03;;;4.20;;
15153;SDS011;7677;41.896;25.004;2023-03-01T10:22:49;3.70;;;3.03;;
15153;SDS011;7677;41.896;25.004;2023-03-01T10:25:20;8.97;;;7.97;;
15153;SDS011;7677;41.896;25.004;2023-03-01T10:27:55;6.50;;;5.40;;
15153;SDS011;7677;41.896;25.004;2023-03-01T10:30:32;6.00;;;5.40;;
15153;SDS011;7677;41.896;25.004;2023-03-01T10:33:03;5.83;;;4.50;;
15153;SDS011;7677;41.896;25.004;2023-03-01T10:35:40;4.13;;;3.60;;
15153;SDS011;7677;41.896;25.004;2023-03-01T10:38:08;3.47;;;2.87;;
15153;SDS011;7677;41.896;25.004;2023-03-01T10:40:36;4.23;;;3.73;;
15153;SDS011;7677;41.896;25.004;2023-03-01T10:43:17;4.50;;;4.03;;
15153;SDS011;7677;41.896;25.004;2023-03-01T10:45:46;5.43;;;3.43;;
15153;SDS011;7677;41.896;25.004;2023-03-01T10:48:14;5.10;;;3.07;;
15153;SDS011;7677;41.896;25.004;2023-03-01T10:50:45;9.60;;;6.70;;
15153;SDS011;7677;41.896;25.004;2023-03-01T10:53:19;8.10;;;6.60;;
15153;SDS011;7677;41.896;25.004;2023-03-01T10:56:02;5.20;;;3.67;;
15153;SDS011;7677;41.896;25.004;2023-03-01T10:58:31;4.00;;;3.30;;
15153;SDS011;7677;41.896;25.004;2023-03-01T11:01:02;4.30;;;3.10;;
15153;SDS011;7677;41.896;25.004;2023-03-01T11:03:31;7.93;;;5.27;;
15153;SDS011;7677;41.896;25.004;2023-03-01T11:06:05;14.77;;;9.67;;
15153;SDS011;7677;41.896;25.004;2023-03-01T11:08:39;9.20;;;6.03;;
15153;SDS011;7677;41.896;25.004;2023-03-01T11:11:19;17.20;;;12.57;;
15153;SDS011;7677;41.896;25.004;2023-03-01T11:13:54;7.33;;;5.30;;
15153;SDS011;7677;41.896;25.004;2023-03-01T11:16:26;4.83;;;3.67;;
15153;SDS011;7677;41.896;25.004;2023-03-01T11:19:01;4.90;;;4.37;;
15153;SDS011;7677;41.896;25.004;2023-03-01T11:21:41;5.77;;;3.97;;
15153;SDS011;7677;41.896;25.004;2023-03-01T11:24:12;6.10;;;4.17;;
15153;SDS011;7677;41.896;25.004;2023-03-01T11:26:42;6.37;;;4.37;;
15153;SDS011;7677;41.896;25.004;2023-03-01T11:29:13;4.57;;;3.60;;
15153;SDS011;7677;41.896;25.004;2023-03-01T11:31:46;3.47;;;3.17;;
15153;SDS011;7677;41.896;25.004;2023-03-01T11:34:16;6.57;;;4.50;;
15153;SDS011;7677;41.896;25.004;2023-03-01T11:36:49;6.20;;;3.60;;
15153;SDS011;7677;41.896;25.004;2023-03-01T11:39:22;9.27;;;5.63;;
15153;SDS011;7677;41.896;25.004;2023-03-01T11:41:58;4.97;;;3.37;;
15153;SDS011;7677;41.896;25.004;2023-03-01T11:44:29;4.33;;;3.47;;
15153;SDS011;7677;41.896;25.004;2023-03-01T11:47:06;4.00;;;3.57;;
15153;SDS011;7677;41.896;25.004;2023-03-01T11:49:52;6.03;;;4.10;;
15153;SDS011;7677;41.896;25.004;2023-03-01T11:52:30;11.27;;;7.70;;
15153;SDS011;7677;41.896;25.004;2023-03-01T11:55:10;7.00;;;5.70;;
15153;SDS011;7677;41.896;25.004;2023-03-01T11:57:51;5.57;;;5.07;;
15153;SDS011;7677;41.896;25.004;2023-03-01T12:00:40;3.10;;;2.80;;
15153;SDS011;7677;41.896;25.004;2023-03-01T12:06:12;4.83;;;3.33;;
15153;SDS011;7677;41.896;25.004;2023-03-01T12:09:00;3.97;;;3.40;;
15153;SDS011;7677;41.896;25.004;2023-03-01T12:11:39;4.13;;;3.50;;
15153;SDS011;7677;41.896;25.004;2023-03-01T12:14:15;3.17;;;2.70;;
15153;SDS011;7677;41.896;25.004;2023-03-01T12:16:59;4.60;;;3.27;;
15153;SDS011;7677;41.896;25.004;2023-03-01T12:19:54;3.63;;;3.10;;
15153;SDS011;7677;41.896;25.004;2023-03-01T12:22:29;4.10;;;3.37;;
15153;SDS011;7677;41.896;25.004;2023-03-01T12:30:44;2.87;;;2.60;;
15153;SDS011;7677;41.896;25.004;2023-03-01T12:33:20;2.93;;;2.10;;
15153;SDS011;7677;41.896;25.004;2023-03-01T12:38:46;1.67;;;1.57;;
15153;SDS011;7677;41.896;25.004;2023-03-01T12:41:29;2.90;;;2.30;;
15153;SDS011;7677;41.896;25.004;2023-03-01T12:44:06;2.27;;;1.70;;
15153;SDS011;7677;41.896;25.004;2023-03-01T12:46:46;2.07;;;1.80;;
15153;SDS011;7677;41.896;25.004;2023-03-01T12:49:20;5.00;;;2.37;;
15153;SDS011;7677;41.896;25.004;2023-03-01T12:51:56;3.00;;;2.70;;
15153;SDS011;7677;41.896;25.004;2023-03-01T12:54:27;2.40;;;2.07;;
15153;SDS011;7677;41.896;25.004;2023-03-01T12:56:57;3.60;;;2.50;;
15153;SDS011;7677;41.896;25.004;2023-03-01T12:59:30;4.97;;;3.90;;
15153;SDS011;7677;41.896;25.004;2023-03-01T13:02:03;4.77;;;4.27;;
15153;SDS011;7677;41.896;25.004;2023-03-01T13:04:38;4.83;;;4.07;;
15153;SDS011;7677;41.896;25.004;2023-03-01T13:07:16;8.27;;;5.17;;
15153;SDS011;7677;41.896;25.004;2023-03-01T13:09:53;8.67;;;6.07;;
15153;SDS011;7677;41.896;25.004;2023-03-01T13:17:59;7.13;;;4.87;;
15153;SDS011;7677;41.896;25.004;2023-03-01T13:20:30;6.47;;;5.17;;
15153;SDS011;7677;41.896;25.004;2023-03-01T13:23:02;5.27;;;4.70;;
15153;SDS011;7677;41.896;25.004;2023-03-01T13:25:34;9.23;;;6.47;;
15153;SDS011;7677;41.896;25.004;2023-03-01T13:31:54;10.60;;;6.57;;
15153;SDS011;7677;41.896;25.004;2023-03-01T13:34:41;7.33;;;4.90;;
15153;SDS011;7677;41.896;25.004;2023-03-01T13:37:32;8.77;;;5.13;;
15153;SDS011;7677;41.896;25.004;2023-03-01T13:40:04;8.93;;;6.03;;
15153;SDS011;7677;41.896;25.004;2023-03-01T13:42:54;11.73;;;8.40;;
15153;SDS011;7677;41.896;25.004;2023-03-01T13:45:23;11.63;;;7.93;;
15153;SDS011;7677;41.896;25.004;2023-03-01T13:47:55;10.50;;;7.63;;
15153;SDS011;7677;41.896;25.004;2023-03-01T13:50:25;7.77;;;5.40;;
15153;SDS011;7677;41.896;25.004;2023-03-01T13:52:55;9.37;;;7.20;;
15153;SDS011;7677;41.896;25.004;2023-03-01T13:55:26;10.87;;;7.60;;
15153;SDS011;7677;41.896;25.004;2023-03-01T13:58:18;11.87;;;6.87;;
15153;SDS011;7677;41.896;25.004;2023-03-01T14:00:55;5.87;;;4.50;;
15153;SDS011;7677;41.896;25.004;2023-03-01T14:03:23;6.37;;;4.83;;
15153;SDS011;7677;41.896;25.004;2023-03-01T14:06:01;8.20;;;5.20;;
15153;SDS011;7677;41.896;25.004;2023-03-01T14:08:34;14.97;;;7.40;;
15153;SDS011;7677;41.896;25.004;2023-03-01T14:13:57;6.67;;;4.23;;
15153;SDS011;7677;41.896;25.004;2023-03-01T14:16:33;10.80;;;5.77;;
15153;SDS011;7677;41.896;25.004;2023-03-01T14:19:14;8.00;;;5.50;;
15153;SDS011;7677;41.896;25.004;2023-03-01T14:21:44;10.83;;;6.33;;
15153;SDS011;7677;41.896;25.004;2023-03-01T14:24:17;9.10;;;5.80;;
15153;SDS011;7677;41.896;25.004;2023-03-01T14:26:47;6.40;;;4.30;;
15153;SDS011;7677;41.896;25.004;2023-03-01T14:29:26;8.27;;;5.00;;
15153;SDS011;7677;41.896;25.004;2023-03-01T14:31:54;6.80;;;5.10;;
15153;SDS011;7677;41.896;25.004;2023-03-01T14:34:23;10.70;;;6.43;;
15153;SDS011;7677;41.896;25.004;2023-03-01T14:36:51;6.90;;;5.43;;
15153;SDS011;7677;41.896;25.004;2023-03-01T14:39:20;7.23;;;4.87;;
15153;SDS011;7677;41.896;25.004;2023-03-01T14:41:51;5.57;;;4.63;;
15153;SDS011;7677;41.896;25.004;2023-03-01T14:44:20;4.93;;;3.93;;
15153;SDS011;7677;41.896;25.004;2023-03-01T14:46:53;6.17;;;4.63;;
15153;SDS011;7677;41.896;25.004;2023-03-01T14:49:23;5.43;;;4.40;;
15153;SDS011;7677;41.896;25.004;2023-03-01T14:51:53;5.50;;;4.03;;
15153;SDS011;7677;41.896;25.004;2023-03-01T14:54:24;6.80;;;4.07;;
15153;SDS011;7677;41.896;25.004;2023-03-01T14:56:54;6.07;;;4.40;;
15153;SDS011;7677;41.896;25.004;2023-03-01T14:59:24;4.50;;;4.10;;
15153;SDS011;7677;41.896;25.004;2023-03-01T15:01:55;7.33;;;5.57;;
15153;SDS011;7677;41.896;25.004;2023-03-01T15:04:24;8.30;;;5.40;;
15153;SDS011;7677;41.896;25.004;2023-03-01T15:06:53;5.67;;;4.50;;
15153;SDS011;7677;41.896;25.004;2023-03-01T15:09:22;7.67;;;5.10;;
15153;SDS011;7677;41.896;25.004;2023-03-01T15:11:51;7.57;;;4.67;;
15153;SDS011;7677;41.896;25.004;2023-03-01T15:14:41;5.50;;;4.23;;
15153;SDS011;7677;41.896;25.004;2023-03-01T15:20:02;7.97;;;4.30;;
15153;SDS011;7677;41.896;25.004;2023-03-01T15:22:31;6.20;;;4.83;;
15153;SDS011;7677;41.896;25.004;2023-03-01T15:24:59;33.37;;;16.03;;
15153;SDS011;7677;41.896;25.004;2023-03-01T15:27:26;29.93;;;14.87;;
15153;SDS011;7677;41.896;25.004;2023-03-01T15:29:54;13.77;;;8.23;;
15153;SDS011;7677;41.896;25.004;2023-03-01T15:32:24;14.27;;;6.70;;
15153;SDS011;7677;41.896;25.004;2023-03-01T15:34:54;19.47;;;10.33;;
15153;SDS011;7677;41.896;25.004;2023-03-01T15:40:20;13.83;;;7.00;;